Historyczne dane pomiarowe

Dodano dane terminowe – wersja testowa.

Dane z okresu 1951-2019

Wersja bazy: 1.34 [2019-03-16, lista zmian], aktualizacja planowana na 2019-04-15

Dane meteo z obszaru Polski uzyskane na podstawie danych udostępnionych przez Instytut Meteorologii i Gospodarki Wodnej – Państwowy Instytut Badawczy.

 

Wybierz Datę:    

       

TemperaturaWilgotnośćZachmurzenieWiatrCiśnienieWidzialnośćZjawiska
 Data    tng td wb rh cc ccl cl cm ch dir g1 g2 mslp ppp      
1999-07-03 00:00:00 11.6--- 10.9 11.295wxwxwx3wx--1014.6 992.3 0.0---wx
1999-07-03 01:00:00 10.6--- 10.1 10.396wxwxwxwx3wx--1014.9 992.5----wx
1999-07-03 02:00:00 10.7--- 10.3 10.598wxwxwx1wx--1014.9 992.5----wx
1999-07-03 03:00:00 10.7--- 10.3 10.598wxwxwx1wx--1014.8 992.4----wx
1999-07-03 04:00:00 13.2--- 12.7 12.997wxwxwxwx1wx--1014.8 992.6----wx
1999-07-03 05:00:00 15.2--- 12.8 13.886wxwxwxwx0wx--1015.1 993.0----wx
1999-07-03 06:00:00 17.4--- 13.6 15.178wxwxwxwx2wx--1015.0 993.1 0.0---wx
1999-07-03 07:00:00 19.3--- 12.3 15.164wxwxwxwx1wx--1014.9 993.1----wx
1999-07-03 08:00:00 20.3--- 11.5 15.157wxwxwxwx1wx--1014.8 993.1----wx
1999-07-03 09:00:00 21.5--- 14.4 17.164wxwxwx4wx--1014.5 992.9----wx
1999-07-03 10:00:00 22.1--- 15.1 17.765wxwxwx4wx--1014.2 992.7----wx
1999-07-03 11:00:00 22.3--- 13.7 17.058wxwxwx6wx--1014.1 992.6----wx
1999-07-03 12:00:00 22.9--- 13.7 17.256wxwxwx6wx--1013.8 992.3 0.0---wx
1999-07-03 13:00:00 23.3--- 14.4 17.757wxwxwx4wx--1013.4 992.0----wx
1999-07-03 14:00:00 24.1--- 15.0 18.357wxwxwx4wx--1013.1 991.7----wx
1999-07-03 15:00:00 23.1--- 14.5 17.758wxwxwx5wx--1013.2 991.7----wx
1999-07-03 16:00:00 23.5--- 14.6 17.957wxwxwx3wx--1013.1 991.7----wx
1999-07-03 17:00:00 22.7--- 16.2 18.567wxwxwx2wx--1013.2 991.7----wx
1999-07-03 18:00:00 20.3--- 16.6 17.979wxwxwx1wx--1013.6 991.9 0.0---wx
1999-07-03 19:00:00 18.7--- 16.2 17.185wxwxwxwx1wx--1014.0 992.2----wx
1999-07-03 20:00:00 17.9--- 16.0 16.789wxwxwx0wx--1014.4 992.5----wx
1999-07-03 21:00:00 16.0--- 15.2 15.595wxwxwx0wx--1014.5 992.5----wx
1999-07-03 22:00:00 15.3--- 14.6 14.996wxwxwx0wx--1014.6 992.5----wx
1999-07-03 23:00:00 15.3--- 14.6 14.996wxwxwx0wx--1014.7 992.6----wx

 

Źródłem pochodzenia danych jest Instytut Meteorologii i Gospodarki Wodnej – Państwowy Instytut Badawczy. Dane Instytutu Meteorologii i Gospodarki Wodnej – Państwowego Instytutu Badawczego zostały przetworzone.

Dane źródłowe można odnaleźć na stronie https://dane.imgw.pl